Time;durP1;ratioP1;P1;durP2;ratioP2;P2;SDS_P1;SDS_P2;PMS_P1;PMS_P2;Temp;Humidity;BMP_temperature;BMP_pressure;BME280_temperature;BME280_humidity;BME280_pressure;Samples;Min_cycle;Max_cycle;Signal;HPM_P1;HPM_P2
2022/08/29 03:50:26;;;;;;;7.90;5.70;;;;;;;19.13;100.00;100307.78;6549509;26;20182;31
2022/08/29 03:53:31;;;;;;;7.40;5.47;;;;;;;19.12;100.00;100308.84;6509685;27;20042;-87
2022/08/29 03:56:34;;;;;;;8.25;6.28;;;;;;;19.15;100.00;100313.84;6553227;27;34637;-87
2022/08/29 03:59:37;;;;;;;7.20;5.50;;;;;;;19.08;100.00;100318.59;6558022;26;34377;-87
2022/08/29 04:02:39;;;;;;;9.57;6.50;;;;;;;19.06;100.00;100323.44;6622008;26;34256;-87
2022/08/29 04:05:42;;;;;;;8.50;5.72;;;;;;;19.07;100.00;100328.69;6614291;26;35447;-87
2022/08/29 04:08:46;;;;;;;10.02;6.28;;;;;;;19.10;100.00;100330.94;6609847;27;34639;-88
2022/08/29 04:11:49;;;;;;;9.15;6.10;;;;;;;19.11;100.00;100321.69;6608126;27;34783;-87
2022/08/29 04:14:51;;;;;;;10.05;6.00;;;;;;;19.10;100.00;100333.69;6605777;27;34466;-86
2022/08/29 04:17:57;;;;;;;8.70;5.22;;;;;;;19.20;100.00;100327.63;6585746;27;32713;-86
2022/08/29 04:21:01;;;;;;;8.48;5.93;;;;;;;19.17;100.00;100334.38;6587506;27;33828;-86
2022/08/29 04:24:04;;;;;;;8.40;6.07;;;;;;;19.23;100.00;100338.06;6608662;27;34048;-86
2022/08/29 04:27:07;;;;;;;8.35;5.87;;;;;;;19.28;100.00;100342.84;6605171;27;34555;-86
2022/08/29 04:30:15;;;;;;;7.80;5.72;;;;;;;19.30;100.00;100338.78;6606339;27;34119;-85
2022/08/29 04:33:20;;;;;;;9.83;6.00;;;;;;;19.34;100.00;100336.44;6619328;27;33674;-85
2022/08/29 04:36:25;;;;;;;9.45;6.40;;;;;;;19.34;100.00;100339.16;6625288;27;35335;-86
2022/08/29 04:39:30;;;;;;;7.22;5.50;;;;;;;19.37;100.00;100338.69;6607756;27;32272;-86
2022/08/29 04:42:37;;;;;;;9.23;5.78;;;;;;;19.49;100.00;100350.44;6614955;27;34706;-87
2022/08/29 04:45:41;;;;;;;7.62;5.93;;;;;;;19.56;100.00;100350.31;6605575;27;34048;-86
2022/08/29 04:48:44;;;;;;;7.75;5.50;;;;;;;19.56;100.00;100353.84;6605770;27;33660;-86
2022/08/29 04:51:46;;;;;;;8.57;6.18;;;;;;;19.62;100.00;100354.81;6605803;26;34144;-87
2022/08/29 04:54:49;;;;;;;7.87;5.53;;;;;;;19.64;100.00;100348.03;6606220;27;34822;-86
2022/08/29 04:57:55;;;;;;;11.00;6.55;;;;;;;19.72;99.96;100354.25;6606496;27;33771;-86
2022/08/29 05:00:59;;;;;;;8.70;5.68;;;;;;;19.76;99.59;100358.16;6606920;27;34534;-86
2022/08/29 05:04:02;;;;;;;6.95;5.55;;;;;;;19.84;98.98;100363.28;6609454;26;34335;-87
2022/08/29 05:07:04;;;;;;;8.35;6.03;;;;;;;19.90;97.96;100354.94;6607200;27;34183;-88
2022/08/29 05:10:12;;;;;;;7.32;5.90;;;;;;;19.92;98.03;100366.47;6607499;27;33376;-88
2022/08/29 05:13:15;;;;;;;7.40;5.55;;;;;;;19.97;97.46;100363.00;6608063;27;35692;-88
2022/08/29 05:16:18;;;;;;;7.65;5.55;;;;;;;20.02;97.32;100363.13;6610639;27;34311;-88
2022/08/29 05:19:22;;;;;;;8.35;6.03;;;;;;;20.05;96.86;100359.06;6610545;27;34204;-88
2022/08/29 05:22:24;;;;;;;7.72;5.55;;;;;;;20.07;96.84;100352.31;6610830;27;34036;-88
2022/08/29 05:25:27;;;;;;;8.85;5.50;;;;;;;20.15;96.19;100360.13;6607360;27;34133;-88
2022/08/29 05:28:34;;;;;;;7.78;5.40;;;;;;;20.33;95.16;100359.13;6606970;27;35709;-88
2022/08/29 05:31:40;;;;;;;10.05;6.28;;;;;;;20.47;94.24;100356.91;6587436;27;33114;-88
2022/08/29 05:34:48;;;;;;;9.07;5.78;;;;;;;20.60;93.46;100356.66;6586849;27;32610;-92
2022/08/29 05:37:51;;;;;;;8.27;5.93;;;;;;;20.86;91.84;100367.28;6606886;27;34279;-92
2022/08/29 05:40:53;;;;;;;7.75;5.22;;;;;;;21.00;90.55;100363.13;6617265;27;33710;-87
2022/08/29 05:43:57;;;;;;;6.80;5.68;;;;;;;21.12;89.77;100374.00;6627190;27;35143;-86
2022/08/29 05:46:59;;;;;;;9.07;5.72;;;;;;;21.20;88.91;100374.41;6622870;27;35486;-86
2022/08/29 05:50:02;;;;;;;8.30;5.30;;;;;;;21.35;88.27;100373.84;6589319;27;33906;-86
2022/08/29 05:53:05;;;;;;;6.43;5.20;;;;;;;21.25;88.46;100374.50;6585659;26;35158;-86
2022/08/29 05:56:08;;;;;;;7.65;5.43;;;;;;;21.33;87.99;100373.28;6605640;27;33627;-86
2022/08/29 05:59:15;;;;;;;6.10;5.15;;;;;;;21.46;87.56;100372.13;6605348;27;34956;-86
2022/08/29 06:02:20;;;;;;;7.85;5.78;;;;;;;21.54;86.53;100357.19;6606066;27;33651;-86
2022/08/29 06:05:23;;;;;;;6.35;5.07;;;;;;;21.58;85.96;100366.56;6607979;26;34091;-87
2022/08/29 06:08:26;;;;;;;5.55;4.53;;;;;;;21.67;85.66;100367.78;6606366;27;33976;-86
2022/08/29 06:11:31;;;;;;;6.95;4.68;;;;;;;21.74;85.64;100369.28;6607996;27;34438;-86
2022/08/29 06:14:34;;;;;;;6.18;4.80;;;;;;;21.81;84.57;100371.84;6608271;27;33992;-86
2022/08/29 06:17:37;;;;;;;5.53;4.60;;;;;;;22.00;83.04;100377.88;6610195;27;33629;-86
2022/08/29 06:20:40;;;;;;;8.10;4.70;;;;;;;22.13;81.85;100382.13;6609757;27;33684;-86
2022/08/29 06:23:44;;;;;;;5.80;4.47;;;;;;;22.26;81.61;100394.66;6589279;27;32975;-86
2022/08/29 06:26:47;;;;;;;7.80;4.70;;;;;;;22.23;81.85;100397.91;6606414;27;33550;-86
2022/08/29 06:29:50;;;;;;;5.03;4.53;;;;;;;22.38;80.41;100393.47;6586658;27;34385;-86
2022/08/29 06:32:52;;;;;;;4.30;3.83;;;;;;;22.52;80.61;100404.03;6606289;27;35382;-86
2022/08/29 06:35:55;;;;;;;4.97;4.47;;;;;;;22.72;79.57;100406.19;6606471;27;34646;-86
2022/08/29 06:39:00;;;;;;;5.97;4.28;;;;;;;22.86;78.41;100404.69;6605707;27;34195;-86
2022/08/29 06:42:03;;;;;;;5.45;4.25;;;;;;;23.00;78.00;100410.66;6606347;27;34835;-86
2022/08/29 06:45:07;;;;;;;5.75;4.55;;;;;;;22.98;77.85;100415.56;6589222;27;32107;-86
2022/08/29 06:48:10;;;;;;;7.30;4.43;;;;;;;23.12;76.89;100419.56;6587009;27;34193;-86
2022/08/29 06:51:17;;;;;;;5.93;4.47;;;;;;;23.03;77.16;100419.19;6606585;27;33864;-86
2022/08/29 06:54:22;;;;;;;5.57;4.32;;;;;;;23.22;76.32;100422.38;6585856;27;33135;-86
2022/08/29 06:57:29;;;;;;;8.07;4.30;;;;;;;23.27;75.84;100416.94;6605511;27;33452;-86
2022/08/29 07:00:32;;;;;;;5.15;4.00;;;;;;;23.31;75.50;100423.59;6605892;27;34164;-86
2022/08/29 07:03:34;;;;;;;5.10;3.95;;;;;;;23.40;75.26;100426.69;6587002;26;33265;-86
2022/08/29 07:06:38;;;;;;;4.93;3.80;;;;;;;23.56;74.37;100424.06;6606362;27;33708;-86
2022/08/29 07:09:41;;;;;;;7.72;4.03;;;;;;;23.57;74.18;100420.19;6605719;27;34097;-86
2022/08/29 07:12:44;;;;;;;4.35;3.95;;;;;;;23.68;73.40;100428.25;6607092;27;34478;-86
2022/08/29 07:15:47;;;;;;;6.37;3.65;;;;;;;23.65;73.42;100426.03;6618245;27;34298;-86
2022/08/29 07:18:50;;;;;;;5.18;4.18;;;;;;;23.72;72.99;100434.09;6617321;27;34375;-86
2022/08/29 07:21:53;;;;;;;5.12;3.92;;;;;;;23.79;72.75;100429.22;6608829;26;33883;-86
2022/08/29 07:25:00;;;;;;;6.32;3.75;;;;;;;23.92;71.69;100425.97;6585453;27;33282;-86
2022/08/29 07:28:04;;;;;;;8.88;3.78;;;;;;;23.82;71.95;100436.09;6585445;27;32784;-86
2022/08/29 07:31:08;;;;;;;7.95;4.00;;;;;;;23.79;72.30;100429.22;6606027;27;34350;-86
2022/08/29 07:34:11;;;;;;;4.30;3.58;;;;;;;24.03;71.98;100426.87;6607260;27;34314;-87
2022/08/29 07:37:14;;;;;;;4.95;3.72;;;;;;;24.26;70.61;100424.81;6607464;27;34022;-90
2022/08/29 07:40:17;;;;;;;4.75;3.70;;;;;;;24.34;69.67;100432.56;6609115;27;33736;-91
2022/08/29 07:43:20;;;;;;;3.72;3.35;;;;;;;24.49;68.57;100429.06;6607314;27;34353;-90
2022/08/29 07:46:30;;;;;;;;;;;;;;;24.61;67.57;100438.75;6587753;27;33270;-87
2022/08/29 07:49:33;;;;;;;4.35;3.40;;;;;;;24.54;68.53;100434.56;6588171;27;34622;-87
2022/08/29 07:52:43;;;;;;;4.20;3.55;;;;;;;24.99;68.51;100436.66;6587107;27;32330;-86
2022/08/29 07:55:46;;;;;;;5.00;3.75;;;;;;;24.85;68.10;100441.03;6609587;27;35021;-87
2022/08/29 07:58:53;;;;;;;3.83;3.40;;;;;;;25.14;66.50;100441.41;6587695;27;32526;-87
2022/08/29 08:01:56;;;;;;;5.12;3.47;;;;;;;25.05;66.36;100441.06;6607177;27;33974;-87
2022/08/29 08:04:59;;;;;;;4.30;3.50;;;;;;;25.28;64.78;100441.69;6606708;26;34023;-86
2022/08/29 08:08:02;;;;;;;4.47;3.62;;;;;;;25.20;65.25;100436.72;6606431;27;34346;-86
2022/08/29 08:11:21;;;;;;;4.53;3.30;;;;;;;25.26;64.24;100435.62;6587162;27;33636;-87
2022/08/29 08:14:23;;;;;;;3.95;3.65;;;;;;;25.10;64.67;100441.09;6607946;27;34830;-88
2022/08/29 08:17:36;;;;;;;4.50;3.70;;;;;;;25.14;64.83;100441.41;6617097;27;33991;-86
2022/08/29 08:20:47;;;;;;;4.55;3.47;;;;;;;25.08;65.23;100443.28;6607436;27;34430;-86
2022/08/29 08:23:51;;;;;;;4.45;3.58;;;;;;;25.24;64.80;100446.09;6606661;27;34588;-87
2022/08/29 08:26:53;;;;;;;3.90;3.50;;;;;;;25.18;64.97;100442.50;6606851;27;34856;-86
2022/08/29 08:29:57;;;;;;;4.82;3.35;;;;;;;25.48;64.79;100441.72;6606410;27;34753;-86
2022/08/29 08:33:02;;;;;;;5.28;3.45;;;;;;;25.92;64.77;100443.91;6606146;27;34066;-86
2022/08/29 08:36:29;;;;;;;3.55;3.25;;;;;;;26.07;61.63;100431.19;6606168;27;34421;-86
2022/08/29 08:39:31;;;;;;;4.22;3.83;;;;;;;26.15;60.90;100441.63;6606849;27;34830;-86
2022/08/29 08:42:44;;;;;;;4.22;3.15;;;;;;;26.21;60.80;100437.78;6606873;27;34525;-86
2022/08/29 08:45:47;;;;;;;5.62;3.60;;;;;;;26.28;59.57;100432.78;6606812;27;35234;-86
2022/08/29 08:48:52;;;;;;;6.32;3.80;;;;;;;26.55;60.42;100434.34;6585318;27;33475;-86
2022/08/29 08:52:00;;;;;;;4.10;3.67;;;;;;;26.65;58.71;100445.38;6605349;27;33621;-86
2022/08/29 08:55:13;;;;;;;;;;;;;;;26.58;58.89;100440.13;6586522;27;33265;-87
2022/08/29 08:58:16;;;;;;;4.40;3.50;;;;;;;26.59;58.64;100444.56;6606365;26;35437;-86
2022/08/29 09:01:22;;;;;;;4.03;3.35;;;;;;;26.80;58.77;100444.47;6586523;27;33096;-87
2022/08/29 09:04:50;;;;;;;4.75;3.35;;;;;;;26.95;58.34;100433.31;6605757;27;34866;-87
2022/08/29 09:08:07;;;;;;;3.72;3.37;;;;;;;26.72;58.37;100448.62;6606143;27;34085;-87
2022/08/29 09:11:47;;;;;;;6.12;3.90;;;;;;;26.88;59.00;100446.59;6606258;27;33973;-87
2022/08/29 09:15:00;;;;;;;5.75;3.70;;;;;;;27.23;57.41;100439.25;6587354;27;32730;-86
2022/08/29 09:18:07;;;;;;;4.60;3.65;;;;;;;27.07;57.58;100435.75;6585575;27;33267;-86
2022/08/29 09:21:19;;;;;;;4.62;3.60;;;;;;;26.88;58.64;100432.78;6585848;27;32729;-86
2022/08/29 09:24:53;;;;;;;4.30;3.75;;;;;;;26.80;58.69;100434.25;6606118;27;34902;-86
2022/08/29 09:27:57;;;;;;;4.97;4.05;;;;;;;26.94;58.16;100434.44;6606318;27;34192;-90
2022/08/29 09:31:33;;;;;;;4.10;3.60;;;;;;;27.09;58.37;100433.53;6606728;27;33708;-87
2022/08/29 09:34:40;;;;;;;3.83;3.53;;;;;;;27.21;57.42;100428.47;6570242;27;34486;-86
2022/08/29 09:38:16;;;;;;;4.57;3.50;;;;;;;27.56;56.65;100429.31;6606478;27;34859;-86
2022/08/29 09:41:27;;;;;;;3.92;3.45;;;;;;;27.61;55.83;100434.78;6606637;27;33585;-86
2022/08/29 09:44:34;;;;;;;4.15;3.30;;;;;;;27.70;55.34;100423.91;6607008;27;33978;-86
2022/08/29 09:47:37;;;;;;;4.05;3.35;;;;;;;27.43;55.76;100429.97;6608246;26;34928;-86
2022/08/29 09:50:41;;;;;;;3.70;3.30;;;;;;;27.63;56.28;100426.22;6588390;27;32724;-86
2022/08/29 09:53:44;;;;;;;4.10;3.15;;;;;;;27.84;54.33;100429.63;6587774;27;33539;-86
2022/08/29 09:56:52;;;;;;;4.10;3.35;;;;;;;27.66;54.52;100426.44;6611924;27;34044;-86
2022/08/29 10:00:14;;;;;;;3.60;3.30;;;;;;;27.66;54.79;100423.69;6624232;26;34773;-86
2022/08/29 10:03:21;;;;;;;3.65;3.35;;;;;;;28.25;53.01;100422.53;6619171;26;34513;-86
2022/08/29 10:06:38;;;;;;;3.70;3.35;;;;;;;28.36;52.60;100419.66;6571934;27;32678;-86
2022/08/29 10:09:57;;;;;;;4.53;3.20;;;;;;;28.55;51.77;100420.56;6608419;27;34258;-90
2022/08/29 10:13:18;;;;;;;5.03;3.20;;;;;;;28.33;52.21;100423.00;6609265;27;34070;-86
2022/08/29 10:16:36;;;;;;;3.58;2.90;;;;;;;28.62;52.02;100431.25;6607915;27;33956;-85
2022/08/29 10:19:39;;;;;;;6.00;3.30;;;;;;;28.88;50.41;100420.66;6614902;27;33814;-86
2022/08/29 10:22:55;;;;;;;4.32;2.97;;;;;;;28.91;50.24;100423.63;6603000;27;33190;-86
2022/08/29 10:26:05;;;;;;;3.25;2.95;;;;;;;28.94;50.09;100431.34;6629626;27;34359;-86
2022/08/29 10:29:35;;;;;;;3.00;2.70;;;;;;;29.12;49.11;100435.28;6594837;27;32481;-86
2022/08/29 10:32:44;;;;;;;4.25;3.78;;;;;;;29.30;48.37;100433.59;6607117;27;34025;-86
2022/08/29 10:36:16;;;;;;;3.20;2.83;;;;;;;29.60;47.56;100432.28;6606833;27;33917;-85
2022/08/29 10:39:41;;;;;;;3.72;2.65;;;;;;;29.38;48.19;100435.69;6587318;27;33452;-86
2022/08/29 10:42:49;;;;;;;6.95;3.20;;;;;;;29.28;48.01;100429.47;6606591;27;34048;-90
2022/08/29 10:45:51;;;;;;;3.47;2.90;;;;;;;29.67;47.24;100434.69;6584886;27;33702;-85
2022/08/29 10:49:10;;;;;;;3.33;2.97;;;;;;;29.53;47.36;100426.31;6568195;27;34563;-86
2022/08/29 10:52:40;;;;;;;4.03;2.87;;;;;;;29.98;47.12;100426.66;6607258;27;33555;-86
2022/08/29 10:55:59;;;;;;;8.25;3.08;;;;;;;30.37;45.24;100417.00;6593337;27;32547;-86
2022/08/29 10:59:17;;;;;;;;;;;;;;;30.32;44.63;100416.28;6592757;27;32787;-86
2022/08/29 11:03:02;;;;;;;2.83;2.40;;;;;;;30.31;44.90;100415.47;6590645;27;33010;-85
2022/08/29 11:06:11;;;;;;;2.90;2.62;;;;;;;30.86;43.49;100401.53;6593154;27;32489;-85
2022/08/29 11:09:17;;;;;;;7.45;2.70;;;;;;;31.13;42.81;100408.12;6614706;27;33885;-85
2022/08/29 11:12:43;;;;;;;5.07;2.90;;;;;;;31.44;40.89;100408.19;6606353;27;34275;-86
2022/08/29 11:15:55;;;;;;;4.32;2.67;;;;;;;31.74;41.61;100403.81;6606099;27;33524;-85
2022/08/29 11:19:27;;;;;;;4.50;2.47;;;;;;;31.90;42.02;100398.66;6605821;27;33998;-84
2022/08/29 11:22:39;;;;;;;2.72;2.28;;;;;;;32.61;41.16;100393.00;6605995;27;33998;-84
2022/08/29 11:25:43;;;;;;;2.45;2.25;;;;;;;33.25;41.04;100384.03;6606009;27;35243;-84
2022/08/29 11:29:20;;;;;;;3.15;2.30;;;;;;;33.47;38.48;100388.59;6605133;27;34177;-84
2022/08/29 11:32:32;;;;;;;4.30;2.63;;;;;;;33.92;37.25;100379.75;6605660;27;34947;-84
2022/08/29 11:35:59;;;;;;;3.78;2.33;;;;;;;33.34;37.42;100386.81;6605896;27;35592;-84
2022/08/29 11:39:28;;;;;;;2.75;2.55;;;;;;;33.64;38.87;100380.22;6586001;27;32425;-85
2022/08/29 11:42:36;;;;;;;3.12;2.30;;;;;;;34.25;36.58;100381.94;6606704;27;34918;-89
2022/08/29 11:46:02;;;;;;;2.33;2.12;;;;;;;34.24;35.58;100375.53;6586572;27;34043;-85
2022/08/29 11:49:30;;;;;;;2.20;1.98;;;;;;;34.68;34.18;100381.69;6606442;27;34435;-85
2022/08/29 11:52:34;;;;;;;1.87;1.65;;;;;;;35.21;33.68;100385.69;6606004;27;33962;-85
2022/08/29 11:55:42;;;;;;;1.75;1.62;;;;;;;36.06;31.93;100377.88;6605818;27;34879;-85
2022/08/29 11:58:47;;;;;;;1.77;1.42;;;;;;;35.96;31.97;100375.53;6604487;27;34130;-85
2022/08/29 12:01:59;;;;;;;1.73;1.60;;;;;;;35.53;32.56;100377.62;6585927;26;34235;-85
2022/08/29 12:05:05;;;;;;;1.77;1.62;;;;;;;36.25;32.62;100380.91;6605700;27;33856;-85
2022/08/29 12:08:17;;;;;;;1.92;1.60;;;;;;;36.10;31.97;100376.03;6605763;27;34102;-85
2022/08/29 12:12:03;;;;;;;1.50;1.40;;;;;;;36.53;30.75;100372.59;6606313;27;34742;-86
2022/08/29 12:15:37;;;;;;;1.48;1.37;;;;;;;36.83;30.61;100375.13;6606234;27;34766;-86
2022/08/29 12:18:47;;;;;;;1.75;1.17;;;;;;;37.32;29.35;100365.69;6585234;27;32955;-86
2022/08/29 12:21:50;;;;;;;1.77;1.50;;;;;;;37.60;29.89;100351.63;6585557;27;34423;-86
2022/08/29 12:24:53;;;;;;;1.50;1.23;;;;;;;38.85;27.44;100348.16;6586440;27;33363;-86
2022/08/29 12:28:03;;;;;;;2.55;1.37;;;;;;;39.30;25.79;100344.69;6606168;27;33923;-86
2022/08/29 12:31:34;;;;;;;2.28;1.55;;;;;;;39.64;24.92;100342.91;6568582;27;33504;-88
2022/08/29 12:34:59;;;;;;;1.50;1.40;;;;;;;39.78;25.64;100339.50;6587988;27;32799;-87
2022/08/29 12:38:26;;;;;;;1.55;1.45;;;;;;;39.13;26.58;100348.75;6587626;26;33388;-88
2022/08/29 12:41:45;;;;;;;1.85;1.67;;;;;;;36.54;29.92;100339.78;6587620;27;32636;-87
2022/08/29 12:45:01;;;;;;;2.47;1.60;;;;;;;36.06;31.43;100339.44;6607302;27;34626;-88
2022/08/29 12:48:08;;;;;;;1.98;1.65;;;;;;;36.67;29.52;100321.72;6590096;26;34159;-87
2022/08/29 12:54:57;;;;;;;1.60;1.50;;;;;;;40.26;24.88;100325.81;6611154;27;35110;-89
2022/08/29 12:58:01;;;;;;;3.75;1.33;;;;;;;41.47;23.58;100309.53;6597922;26;33784;-87
2022/08/29 13:01:08;;;;;;;1.35;1.25;;;;;;;41.31;23.03;100319.47;6580110;27;33683;-86
2022/08/29 13:04:19;;;;;;;2.58;1.35;;;;;;;39.60;24.88;100313.81;6558293;27;33733;-85
2022/08/29 13:07:22;;;;;;;1.62;1.52;;;;;;;40.24;24.54;100305.63;6578790;27;34004;-86
2022/08/29 13:10:30;;;;;;;3.12;1.30;;;;;;;40.96;23.64;100303.75;6562845;27;33449;-86
2022/08/29 13:13:34;;;;;;;1.35;1.10;;;;;;;42.03;22.82;100307.56;6559559;27;32565;-86
2022/08/29 13:16:38;;;;;;;1.50;1.30;;;;;;;42.82;21.73;100315.72;6578775;27;34603;-86
2022/08/29 13:20:01;;;;;;;1.50;1.40;;;;;;;43.65;20.53;100307.00;6563599;27;32531;-86
2022/08/29 13:23:33;;;;;;;1.33;1.17;;;;;;;42.91;21.44;100301.97;6557614;27;32569;-86
2022/08/29 13:26:42;;;;;;;1.55;1.30;;;;;;;43.02;20.91;100297.97;6577371;27;34046;-86
2022/08/29 13:30:06;;;;;;;1.33;1.25;;;;;;;42.25;21.78;100291.56;6557825;27;32446;-87
2022/08/29 13:33:26;;;;;;;1.48;1.17;;;;;;;41.58;22.62;100292.69;6577942;27;33744;-86
2022/08/29 13:36:49;;;;;;;1.98;1.52;;;;;;;41.90;22.44;100292.16;6577597;27;34200;-87
2022/08/29 13:39:52;;;;;;;1.60;1.50;;;;;;;42.52;21.58;100283.63;6577869;27;34420;-87
2022/08/29 13:42:56;;;;;;;1.37;1.27;;;;;;;42.79;21.17;100281.31;6578091;27;35244;-86
2022/08/29 13:46:26;;;;;;;1.00;1.00;;;;;;;41.28;22.46;100286.34;6557758;27;34021;-86
2022/08/29 13:49:31;;;;;;;3.92;1.37;;;;;;;37.88;27.13;100286.88;6582085;27;34573;-86
2022/08/29 13:52:34;;;;;;;1.42;1.33;;;;;;;37.94;27.37;100295.88;6574414;27;32644;-85
2022/08/29 13:55:40;;;;;;;1.40;1.20;;;;;;;39.04;26.48;100280.59;6585228;27;34931;-86
2022/08/29 13:58:42;;;;;;;1.45;1.35;;;;;;;39.53;24.97;100288.34;6559059;27;32123;-86
2022/08/29 14:01:46;;;;;;;2.80;1.20;;;;;;;37.70;27.44;100285.66;6558366;27;34419;-86
2022/08/29 14:05:09;;;;;;;1.30;1.20;;;;;;;35.53;30.66;100290.81;6578727;27;34044;-86
2022/08/29 14:08:12;;;;;;;2.33;1.73;;;;;;;33.98;33.02;100294.63;6598393;27;34711;-86
2022/08/29 14:11:16;;;;;;;2.78;1.50;;;;;;;32.69;35.36;100286.25;6580452;27;32851;-86
2022/08/29 14:14:18;;;;;;;3.30;1.98;;;;;;;32.04;36.85;100292.75;6594872;27;35284;-86
2022/08/29 14:17:23;;;;;;;1.67;1.50;;;;;;;31.89;36.69;100293.16;6578867;27;33562;-86
2022/08/29 14:20:25;;;;;;;1.85;1.10;;;;;;;31.93;36.71;100286.62;6558720;27;32318;-86
2022/08/29 14:23:28;;;;;;;1.67;1.58;;;;;;;31.85;37.07;100299.38;6558078;27;32866;-86
2022/08/29 14:26:31;;;;;;;2.72;1.60;;;;;;;31.61;37.46;100293.38;6577532;27;33988;-86
2022/08/29 14:29:34;;;;;;;2.28;2.00;;;;;;;31.23;38.24;100287.44;6577729;27;34043;-86
2022/08/29 14:32:37;;;;;;;2.30;1.98;;;;;;;31.02;38.84;100295.50;6578762;27;33884;-86
2022/08/29 14:35:40;;;;;;;2.17;2.03;;;;;;;30.89;39.38;100292.47;6580749;27;34260;-86
2022/08/29 14:38:44;;;;;;;5.45;1.90;;;;;;;30.52;40.26;100287.22;6580445;27;34963;-89
2022/08/29 14:41:47;;;;;;;2.10;2.00;;;;;;;30.58;40.35;100285.97;6583470;27;33774;-90
2022/08/29 14:44:50;;;;;;;2.50;1.95;;;;;;;30.40;40.59;100283.03;6599649;27;35000;-90
2022/08/29 14:47:54;;;;;;;1.95;1.70;;;;;;;30.48;40.88;100287.06;6578823;27;35416;-89
2022/08/29 14:50:56;;;;;;;2.83;2.10;;;;;;;30.28;40.83;100286.38;6590448;27;35075;-86
2022/08/29 14:53:59;;;;;;;2.20;2.05;;;;;;;29.96;41.84;100284.53;6574533;27;33481;-87
2022/08/29 14:57:02;;;;;;;2.45;1.65;;;;;;;30.07;41.33;100285.16;6560552;27;33106;-85
2022/08/29 15:00:26;;;;;;;3.42;1.98;;;;;;;29.83;41.82;100286.19;6559118;27;32605;-86
2022/08/29 15:03:28;;;;;;;4.28;2.10;;;;;;;29.75;42.58;100284.16;6559845;27;32244;-86
2022/08/29 15:06:31;;;;;;;2.40;2.10;;;;;;;29.73;42.38;100268.94;6561363;27;34435;-85
2022/08/29 15:09:35;;;;;;;3.05;1.98;;;;;;;29.44;43.18;100272.78;6559562;27;32882;-85
2022/08/29 15:12:38;;;;;;;2.20;2.00;;;;;;;29.49;43.66;100277.44;6579548;27;33712;-85
2022/08/29 15:15:41;;;;;;;2.42;2.22;;;;;;;29.71;43.02;100273.97;6559398;27;33648;-85
2022/08/29 15:18:44;;;;;;;3.20;2.12;;;;;;;29.81;42.78;100282.09;6580078;27;34732;-86
2022/08/29 15:22:07;;;;;;;2.25;2.08;;;;;;;29.83;42.16;100275.06;6559880;27;32902;-85
2022/08/29 15:25:10;;;;;;;2.40;2.00;;;;;;;29.68;42.47;100280.94;6579616;27;33918;-86
2022/08/29 15:28:12;;;;;;;2.58;2.22;;;;;;;29.71;42.49;100288.66;6560239;27;32244;-86
2022/08/29 15:31:16;;;;;;;2.75;2.50;;;;;;;29.33;46.31;100312.94;6559615;27;32742;-87
2022/08/29 15:34:18;;;;;;;4.72;2.80;;;;;;;28.30;50.90;100315.63;6559511;27;33238;-87
2022/08/29 15:37:22;;;;;;;8.05;3.50;;;;;;;27.49;57.61;100334.78;6579179;27;34782;-86
